Time;durP1;ratioP1;P1;durP2;ratioP2;P2;SDS_P1;SDS_P2;PMS_P1;PMS_P2;Temp;Humidity;BMP_temperature;BMP_pressure;BME280_temperature;BME280_humidity;BME280_pressure;Samples;Min_cycle;Max_cycle;Signal;HPM_P1;HPM_P2
2022/06/03 04:06:30;;;;;;;3.43;3.23;;;14.40;99.90;;;;;;4972986;28;20485;-66
2022/06/03 04:09:25;;;;;;;3.20;2.93;;;14.40;99.90;;;;;;4974321;28;20413;-65
2022/06/03 04:12:14;;;;;;;2.90;2.70;;;14.40;99.90;;;;;;4974471;28;20432;-66
2022/06/03 04:15:17;;;;;;;3.63;3.43;;;14.40;99.90;;;;;;4973989;28;20398;-65
2022/06/03 04:18:27;;;;;;;3.87;3.60;;;14.40;99.90;;;;;;4972475;28;20477;-65
2022/06/03 04:21:14;;;;;;;3.57;3.27;;;14.50;99.90;;;;;;4959257;28;20400;-65
2022/06/03 04:24:05;;;;;;;4.33;3.93;;;14.40;99.90;;;;;;4973793;28;20464;-65
2022/06/03 04:26:59;;;;;;;3.77;3.47;;;14.40;99.90;;;;;;4974038;28;20411;-66
2022/06/03 04:29:48;;;;;;;2.77;2.57;;;14.40;99.90;;;;;;4974263;28;20411;-65
2022/06/03 04:32:44;;;;;;;3.70;3.30;;;14.40;99.90;;;;;;4974064;28;20421;-66
2022/06/03 04:35:09;;;;;;;4.00;3.30;;;14.40;99.90;;;;;;4973504;28;20996;-65
2022/06/03 04:38:15;;;;;;;3.53;3.30;;;14.40;99.90;;;;;;4973689;28;20414;-65
2022/06/03 04:40:50;;;;;;;4.00;3.70;;;14.40;99.90;;;;;;4952786;29;20517;-65
2022/06/03 04:43:40;;;;;;;4.70;4.40;;;14.50;99.90;;;;;;4952465;29;20822;-66
2022/06/03 04:46:48;;;;;;;4.03;3.73;;;14.70;99.90;;;;;;4967517;28;20415;-66
2022/06/03 04:49:57;;;;;;;4.20;3.80;;;15.00;99.90;;;;;;4965534;28;20518;-67
2022/06/03 04:52:52;;;;;;;5.90;5.30;;;15.30;99.90;;;;;;4975839;28;20811;-67
2022/06/03 04:55:51;;;;;;;5.47;4.00;;;15.60;99.90;;;;;;4977532;28;20389;-67
2022/06/03 04:58:51;;;;;;;3.97;3.60;;;15.90;99.90;;;;;;4976302;28;20467;-66
2022/06/03 05:01:56;;;;;;;4.83;4.43;;;16.20;99.90;;;;;;4977068;28;20394;-66
2022/06/03 05:04:30;;;;;;;5.63;4.40;;;16.40;99.90;;;;;;4976877;28;20931;-66
2022/06/03 05:07:33;;;;;;;4.60;4.20;;;16.50;99.90;;;;;;4977369;28;20369;-65
2022/06/03 05:10:36;;;;;;;4.40;4.00;;;16.70;99.90;;;;;;4977074;28;20783;-66
2022/06/03 05:13:39;;;;;;;4.30;3.90;;;16.90;99.90;;;;;;4976743;28;20434;-67
2022/06/03 05:16:25;;;;;;;4.23;3.93;;;17.10;99.90;;;;;;4977395;28;20381;-67
2022/06/03 05:18:50;;;;;;;4.30;4.03;;;17.30;99.90;;;;;;4916992;29;20961;-68
2022/06/03 05:21:51;;;;;;;3.40;3.17;;;17.40;99.90;;;;;;4917620;29;20411;-67
2022/06/03 05:24:41;;;;;;;3.53;3.33;;;17.60;99.90;;;;;;4856158;29;20241;-67
2022/06/03 05:27:18;;;;;;;3.30;3.10;;;17.90;99.90;;;;;;4917638;29;20508;-67
2022/06/03 05:30:02;;;;;;;4.87;3.63;;;18.00;99.90;;;;;;4916767;29;20517;-67
2022/06/03 05:33:05;;;;;;;6.70;4.27;;;18.10;99.90;;;;;;4917104;29;20487;-67
2022/06/03 05:35:46;;;;;;;3.80;3.50;;;18.10;99.90;;;;;;4916972;29;20752;-67
2022/06/03 05:38:40;;;;;;;4.00;3.60;;;18.30;99.90;;;;;;4917339;29;20602;-68
2022/06/03 05:44:29;;;;;;;3.47;3.17;;;18.40;99.90;;;;;;4916797;29;20925;-71
2022/06/03 05:47:13;;;;;;;4.10;3.70;;;18.50;99.90;;;;;;4916402;29;20454;-67
2022/06/03 05:50:14;;;;;;;3.90;3.60;;;18.70;99.90;;;;;;4907251;29;20422;-64
2022/06/03 05:52:54;;;;;;;4.20;3.90;;;18.80;99.90;;;;;;4916587;29;20469;-64
2022/06/03 05:55:39;;;;;;;3.80;3.50;;;19.00;99.90;;;;;;4931585;28;20419;-65
2022/06/03 05:58:44;;;;;;;4.30;3.90;;;19.30;99.90;;;;;;4976428;28;20502;-66
2022/06/03 06:01:51;;;;;;;4.27;3.97;;;19.40;99.90;;;;;;4975041;28;20499;-66
2022/06/03 06:04:29;;;;;;;4.90;4.50;;;19.40;99.90;;;;;;4974840;28;20491;-67
2022/06/03 06:07:52;;;;;;;6.80;3.60;;;19.40;99.90;;;;;;4971162;28;20458;-66
2022/06/03 06:10:55;;;;;;;4.27;3.87;;;19.50;99.90;;;;;;4916231;29;20400;-66
2022/06/03 06:13:38;;;;;;;3.47;3.27;;;19.60;99.90;;;;;;4878219;29;20462;-64
2022/06/03 06:16:22;;;;;;;4.10;3.80;;;19.70;99.90;;;;;;4878966;29;20945;-69
2022/06/03 06:19:00;;;;;;;4.90;4.50;;;19.80;99.90;;;;;;4878787;29;20554;-70
2022/06/03 06:21:40;;;;;;;4.23;3.93;;;19.90;99.90;;;;;;4878666;29;20445;-71
2022/06/03 06:24:19;;;;;;;4.43;3.27;;;20.00;99.90;;;;;;4878425;29;20455;-70
2022/06/03 06:27:04;;;;;;;4.70;4.10;;;20.10;99.90;;;;;;4878907;29;20450;-66
2022/06/03 06:29:48;;;;;;;4.20;3.90;;;20.20;99.90;;;;;;4878746;29;20842;-65
2022/06/03 06:32:25;;;;;;;4.47;4.07;;;20.30;99.90;;;;;;4878059;29;20542;-69
2022/06/03 06:35:29;;;;;;;3.73;3.43;;;20.50;99.90;;;;;;4878794;29;20471;-69
2022/06/03 06:38:22;;;;;;;3.80;3.53;;;20.70;99.90;;;;;;4878666;29;20514;-69
2022/06/03 06:41:14;;;;;;;3.77;3.47;;;20.70;99.90;;;;;;4907655;29;20432;-69
2022/06/03 06:44:07;;;;;;;3.87;3.57;;;20.60;99.90;;;;;;4960483;28;20406;-69
2022/06/03 06:46:48;;;;;;;4.10;3.70;;;20.70;99.90;;;;;;4975585;28;20415;-69
2022/06/03 06:49:27;;;;;;;4.40;4.00;;;20.80;99.90;;;;;;4975137;28;20402;-68
2022/06/03 06:52:07;;;;;;;4.23;3.90;;;21.00;99.90;;;;;;4975572;28;20455;-71
2022/06/03 06:54:44;;;;;;;4.20;3.80;;;21.20;99.70;;;;;;4975371;28;20505;-71
2022/06/03 06:57:10;;;;;;;4.63;4.23;;;21.50;99.10;;;;;;4975358;28;20386;-71
2022/06/03 06:59:46;;;;;;;3.30;3.03;;;21.70;98.70;;;;;;4974926;28;20408;-70
2022/06/03 07:02:15;;;;;;;4.10;3.80;;;21.90;98.70;;;;;;4975104;28;20641;-70
2022/06/03 07:04:52;;;;;;;4.37;3.97;;;22.20;98.80;;;;;;4975083;28;20435;-72
2022/06/03 07:07:34;;;;;;;4.77;4.37;;;22.30;97.90;;;;;;4975194;28;20419;-72
2022/06/03 07:10:17;;;;;;;3.43;3.23;;;22.50;97.70;;;;;;4975170;28;20408;-71
2022/06/03 07:13:02;;;;;;;4.13;3.83;;;22.70;97.50;;;;;;4970185;28;20435;-71
2022/06/03 07:15:58;;;;;;;4.47;4.17;;;22.90;97.40;;;;;;4955843;28;20378;-71
2022/06/03 07:21:35;;;;;;;4.00;3.70;;;23.30;96.40;;;;;;4973825;28;20414;-72
2022/06/03 07:24:17;;;;;;;4.00;3.70;;;23.60;96.00;;;;;;4974574;28;20394;-73
2022/06/03 07:26:54;;;;;;;3.80;3.50;;;24.00;96.10;;;;;;4975066;28;20449;-67
2022/06/03 07:29:36;;;;;;;3.50;3.30;;;24.40;95.10;;;;;;4973392;28;20441;-67
2022/06/03 07:32:17;;;;;;;4.17;3.87;;;24.90;95.10;;;;;;4974378;28;20490;-74
2022/06/03 07:34:59;;;;;;;5.40;3.27;;;25.90;94.30;;;;;;4974724;28;20778;-67
2022/06/03 07:37:28;;;;;;;5.57;3.80;;;27.20;92.10;;;;;;4974904;28;20521;-67
2022/06/03 07:40:03;;;;;;;3.60;3.30;;;28.40;89.60;;;;;;4974235;28;20478;-65
2022/06/03 07:42:45;;;;;;;4.30;3.90;;;29.60;85.80;;;;;;4974100;28;20546;-65
2022/06/03 07:46:02;;;;;;;4.00;3.80;;;30.90;79.90;;;;;;4974601;28;20431;-65
2022/06/03 07:48:31;;;;;;;4.70;4.40;;;32.20;75.70;;;;;;4962869;28;20426;-65
2022/06/03 07:50:59;;;;;;;4.73;4.43;;;33.30;69.90;;;;;;4972658;28;20934;-65
2022/06/03 07:53:47;;;;;;;4.40;4.10;;;33.90;67.40;;;;;;4974060;28;20823;-66
2022/06/03 07:56:19;;;;;;;4.07;3.70;;;34.40;64.60;;;;;;4974659;28;20412;-65
2022/06/03 07:58:54;;;;;;;4.33;4.03;;;34.90;62.30;;;;;;4974392;28;20416;-65
2022/06/03 08:01:33;;;;;;;3.87;3.67;;;35.40;61.10;;;;;;4974376;28;20843;-65
2022/06/03 08:03:59;;;;;;;3.80;3.60;;;35.70;59.40;;;;;;4973948;28;20423;-65
2022/06/03 08:12:14;;;;;;;4.27;4.07;;;36.80;56.80;;;;;;4954683;29;20511;-66
2022/06/03 08:14:40;;;;;;;5.57;4.70;;;36.90;56.10;;;;;;4955107;28;20428;-66
2022/06/03 08:17:09;;;;;;;4.47;4.17;;;36.80;56.20;;;;;;4954880;28;20987;-66
2022/06/03 08:19:36;;;;;;;4.03;3.83;;;37.00;55.80;;;;;;4956977;28;20408;-67
2022/06/03 08:22:05;;;;;;;4.03;3.47;;;36.80;54.60;;;;;;4972430;28;20432;-69
2022/06/03 08:24:35;;;;;;;3.80;3.50;;;36.60;54.70;;;;;;4974579;28;20455;-68
2022/06/03 08:27:20;;;;;;;3.60;3.40;;;36.70;54.80;;;;;;4978119;28;20426;-68
2022/06/03 08:30:11;;;;;;;3.50;3.30;;;37.00;54.30;;;;;;4977849;28;20424;-68
2022/06/03 08:33:06;;;;;;;5.30;4.90;;;37.00;53.30;;;;;;4977105;28;20474;-67
2022/06/03 08:35:36;;;;;;;4.00;3.80;;;37.20;54.30;;;;;;4977426;28;20891;-69
2022/06/03 08:38:10;;;;;;;3.50;3.20;;;37.70;54.00;;;;;;4978102;28;20412;-68
2022/06/03 08:41:03;;;;;;;3.90;3.60;;;38.10;53.50;;;;;;4977095;28;20451;-69
2022/06/03 08:43:32;;;;;;;3.67;3.47;;;38.20;52.50;;;;;;4976976;28;20458;-66
2022/06/03 08:46:20;;;;;;;4.13;3.93;;;38.50;52.40;;;;;;4977559;28;20423;-65
2022/06/03 08:48:48;;;;;;;4.80;4.50;;;38.60;52.00;;;;;;4977647;28;20403;-70
2022/06/03 08:51:45;;;;;;;3.50;3.30;;;38.30;52.00;;;;;;4977174;28;20454;-70
2022/06/03 08:54:30;;;;;;;4.40;4.00;;;38.20;52.20;;;;;;4969268;28;20517;-71
2022/06/03 08:57:07;;;;;;;3.77;3.57;;;38.00;52.40;;;;;;4976397;28;20506;-73
2022/06/03 08:59:45;;;;;;;4.07;3.87;;;38.00;52.70;;;;;;4977505;28;20407;-70
2022/06/03 09:02:20;;;;;;;4.40;4.20;;;38.40;52.00;;;;;;4977169;28;20399;-70
2022/06/03 09:04:47;;;;;;;3.27;3.17;;;38.90;52.60;;;;;;4977041;28;20455;-66
2022/06/03 09:07:38;;;;;;;3.60;3.47;;;38.90;50.90;;;;;;4977265;28;20503;-65
2022/06/03 09:10:33;;;;;;;3.67;3.47;;;38.90;50.50;;;;;;4977876;28;20396;-64
2022/06/03 09:13:16;;;;;;;4.00;3.80;;;38.90;50.80;;;;;;4976851;28;20460;-66
2022/06/03 09:15:43;;;;;;;4.43;4.13;;;38.40;51.00;;;;;;4976799;28;20430;-65
2022/06/03 09:18:44;;;;;;;3.40;3.20;;;38.50;51.10;;;;;;4970116;28;20408;-65
2022/06/03 09:21:18;;;;;;;3.70;3.40;;;38.90;50.80;;;;;;4956073;29;20833;-64
2022/06/03 09:23:50;;;;;;;3.43;3.23;;;39.10;49.80;;;;;;4962254;28;20487;-66
2022/06/03 09:26:32;;;;;;;3.40;3.30;;;39.00;50.40;;;;;;4975559;28;20515;-67
2022/06/03 09:28:59;;;;;;;3.10;3.00;;;39.20;50.30;;;;;;4977057;28;20438;-67
2022/06/03 09:31:26;;;;;;;3.60;3.30;;;39.10;48.60;;;;;;4976880;28;20403;-68
2022/06/03 09:33:56;;;;;;;3.83;3.63;;;38.60;49.10;;;;;;4976394;28;20463;-66
2022/06/03 09:36:23;;;;;;;3.27;2.97;;;38.30;50.50;;;;;;4976046;28;20506;-67
2022/06/03 09:39:08;;;;;;;3.83;3.63;;;38.30;49.90;;;;;;4977022;28;20930;-67
2022/06/03 09:41:43;;;;;;;3.23;3.03;;;38.50;49.70;;;;;;4976780;28;20775;-68
2022/06/03 09:44:12;;;;;;;3.70;3.50;;;39.00;49.40;;;;;;4965251;28;20448;-65
2022/06/03 09:46:39;;;;;;;3.90;3.50;;;39.00;49.20;;;;;;4973810;28;20447;-66
2022/06/03 09:49:06;;;;;;;3.20;3.10;;;39.00;49.70;;;;;;4976490;28;20403;-65
2022/06/03 09:51:55;;;;;;;3.70;3.50;;;38.90;49.40;;;;;;4976616;28;20439;-68
2022/06/03 09:54:43;;;;;;;3.73;3.53;;;39.00;48.90;;;;;;4976323;28;20593;-66
2022/06/03 09:57:33;;;;;;;3.60;3.40;;;39.50;48.50;;;;;;4976487;28;20839;-69
2022/06/03 10:00:17;;;;;;;3.53;3.40;;;39.50;48.10;;;;;;4976435;28;20474;-66
2022/06/03 10:02:43;;;;;;;3.43;3.30;;;39.50;48.60;;;;;;4974895;28;20775;-66
2022/06/03 10:05:12;;;;;;;3.87;3.67;;;39.40;48.60;;;;;;4974333;28;20542;-68
2022/06/03 10:07:38;;;;;;;3.70;3.50;;;39.30;48.70;;;;;;4975642;28;20419;-69
2022/06/03 10:12:52;;;;;;;3.30;3.10;;;39.20;48.90;;;;;;4975524;28;20243;-71
2022/06/03 10:15:38;;;;;;;3.20;3.10;;;39.30;48.10;;;;;;4975617;28;20419;-70
2022/06/03 10:18:28;;;;;;;3.53;3.33;;;39.20;48.40;;;;;;4975786;28;20799;-65
2022/06/03 10:20:56;;;;;;;3.27;3.10;;;38.80;48.00;;;;;;4962148;28;20438;-66
2022/06/03 10:23:27;;;;;;;3.40;3.20;;;37.80;49.20;;;;;;4975136;28;20800;-67
2022/06/03 10:25:58;;;;;;;2.93;2.83;;;37.20;50.30;;;;;;4975228;28;20424;-67
2022/06/03 10:28:24;;;;;;;2.93;2.73;;;37.20;50.50;;;;;;4975674;28;20450;-66
2022/06/03 10:31:06;;;;;;;3.70;3.40;;;37.30;49.40;;;;;;4975777;28;20416;-68
2022/06/03 10:33:33;;;;;;;3.40;3.20;;;37.20;49.80;;;;;;4974621;28;20207;-68
2022/06/03 10:36:00;;;;;;;3.00;2.80;;;36.80;49.80;;;;;;4975873;28;20420;-67
2022/06/03 10:38:29;;;;;;;3.30;3.10;;;36.90;49.30;;;;;;4975335;28;20511;-68
2022/06/03 10:40:55;;;;;;;4.40;3.47;;;37.00;49.50;;;;;;4974611;28;20443;-69
2022/06/03 10:43:27;;;;;;;2.90;2.80;;;37.00;49.70;;;;;;4974597;28;20451;-63
2022/06/03 10:46:10;;;;;;;3.30;3.10;;;36.90;50.50;;;;;;4973650;28;20424;-65
2022/06/03 10:48:36;;;;;;;3.40;3.20;;;36.60;50.50;;;;;;4974345;28;20506;-66
2022/06/03 11:02:42;;;;;;;2.80;2.60;;;36.10;49.80;;;;;;4975122;28;20486;-70
2022/06/03 11:05:11;;;;;;;2.90;2.70;;;35.40;50.30;;;;;;4973921;28;20483;-64
2022/06/03 11:07:36;;;;;;;3.23;3.03;;;34.90;50.90;;;;;;4975094;28;20506;-63
2022/06/03 11:10:15;;;;;;;2.90;2.70;;;34.70;51.00;;;;;;4974995;28;20382;-65
2022/06/03 11:12:43;;;;;;;2.80;2.50;;;34.60;51.30;;;;;;4974564;28;20196;-64
2022/06/03 11:15:37;;;;;;;2.93;2.73;;;34.40;51.80;;;;;;4973375;28;20542;-65
2022/06/03 11:18:32;;;;;;;2.80;2.70;;;34.00;52.10;;;;;;4974808;28;20451;-64
2022/06/03 11:21:15;;;;;;;2.97;2.80;;;33.50;52.70;;;;;;4969418;28;20455;-65
2022/06/03 11:23:41;;;;;;;2.60;2.50;;;33.00;52.70;;;;;;4973757;28;20443;-65
2022/06/03 11:26:10;;;;;;;2.60;2.43;;;32.20;53.50;;;;;;4970579;28;20501;-74
2022/06/03 11:28:51;;;;;;;2.20;2.10;;;31.50;54.70;;;;;;4972017;28;20211;-68
2022/06/03 11:31:31;;;;;;;2.67;2.50;;;30.70;56.30;;;;;;4973768;28;20735;-71
2022/06/03 11:34:06;;;;;;;2.53;2.33;;;30.40;56.60;;;;;;4955050;28;20838;-67
2022/06/03 11:36:36;;;;;;;2.30;2.20;;;30.20;58.90;;;;;;4964495;28;20735;-70
2022/06/03 11:39:06;;;;;;;3.10;2.90;;;30.00;59.10;;;;;;4974682;28;20418;-66
2022/06/03 11:41:38;;;;;;;3.43;3.23;;;29.90;60.60;;;;;;4974532;28;20745;-67
2022/06/03 11:44:09;;;;;;;3.50;3.30;;;29.80;61.90;;;;;;4974216;28;20898;-66
2022/06/03 11:46:48;;;;;;;3.37;3.07;;;29.60;62.00;;;;;;4974614;28;20416;-68
2022/06/03 11:49:18;;;;;;;3.53;2.70;;;29.40;65.00;;;;;;4974205;28;20402;-69
2022/06/03 11:51:46;;;;;;;4.10;3.00;;;29.10;65.50;;;;;;4973895;28;20415;-69
2022/06/03 11:54:15;;;;;;;3.43;3.23;;;28.90;66.90;;;;;;4973727;28;20482;-68
2022/06/03 11:56:41;;;;;;;3.30;3.10;;;28.70;68.30;;;;;;4973953;28;20511;-68
2022/06/03 11:59:13;;;;;;;4.53;3.27;;;28.50;69.50;;;;;;4971479;28;21004;-66
2022/06/03 12:01:39;;;;;;;4.53;3.50;;;28.30;72.10;;;;;;4973943;28;20419;-68
2022/06/03 12:04:23;;;;;;;3.77;3.47;;;28.10;73.60;;;;;;4973128;28;20524;-71
2022/06/03 12:07:13;;;;;;;4.07;3.80;;;28.00;76.10;;;;;;4974048;28;20233;-70
2022/06/03 12:09:56;;;;;;;4.37;4.07;;;27.70;77.20;;;;;;4953784;29;20431;-70
2022/06/03 12:15:35;;;;;;;3.60;3.40;;;27.50;79.90;;;;;;4973603;28;20461;-70
2022/06/03 12:18:07;;;;;;;4.60;4.03;;;27.40;80.50;;;;;;4972688;28;20433;-65
2022/06/03 12:20:47;;;;;;;4.30;4.00;;;27.30;81.50;;;;;;4967250;28;20406;-68
2022/06/03 12:23:12;;;;;;;4.40;4.10;;;27.30;81.80;;;;;;4954589;28;20466;-68
2022/06/03 12:25:58;;;;;;;4.50;3.80;;;27.40;82.30;;;;;;4969406;28;20900;-67
2022/06/03 12:28:36;;;;;;;4.23;3.93;;;27.50;81.40;;;;;;4967022;28;20214;-67
2022/06/03 12:31:07;;;;;;;4.17;3.87;;;27.60;81.00;;;;;;4972777;28;20525;-69
2022/06/03 12:33:35;;;;;;;4.20;3.90;;;27.60;80.60;;;;;;4973294;28;20433;-68
2022/06/03 12:36:08;;;;;;;4.53;4.13;;;27.50;80.00;;;;;;4974157;28;20533;-69
2022/06/03 12:38:54;;;;;;;4.23;3.93;;;27.50;80.10;;;;;;4974025;28;20431;-69
2022/06/03 12:41:49;;;;;;;4.13;3.83;;;27.60;81.10;;;;;;4974222;28;20382;-70
2022/06/03 12:44:32;;;;;;;4.37;3.93;;;27.50;81.20;;;;;;4973301;28;20405;-69
2022/06/03 12:47:24;;;;;;;4.00;3.70;;;27.50;82.00;;;;;;4973716;28;20383;-69
2022/06/03 12:49:52;;;;;;;3.97;3.67;;;27.50;82.60;;;;;;4974441;28;20734;-70
2022/06/03 12:52:20;;;;;;;3.57;3.33;;;27.50;82.60;;;;;;4973765;28;20430;-70
2022/06/03 12:54:58;;;;;;;4.77;4.47;;;27.60;82.90;;;;;;4973770;28;20425;-70
2022/06/03 12:57:33;;;;;;;4.70;4.30;;;27.70;82.20;;;;;;4972458;28;20408;-71
2022/06/03 13:00:07;;;;;;;4.73;4.33;;;27.70;81.90;;;;;;4973946;28;20396;-69
2022/06/03 13:02:51;;;;;;;4.00;3.80;;;27.50;81.60;;;;;;4973442;28;20380;-69
2022/06/03 13:05:37;;;;;;;4.27;3.90;;;27.60;82.50;;;;;;4973687;28;20425;-69
2022/06/03 13:08:10;;;;;;;4.70;4.40;;;27.50;83.60;;;;;;4973571;28;20434;-69
2022/06/03 13:10:55;;;;;;;4.20;3.90;;;27.40;84.80;;;;;;4974431;28;20380;-70
2022/06/03 13:13:29;;;;;;;5.30;4.80;;;27.30;84.80;;;;;;4976744;28;20978;-69
2022/06/03 13:16:17;;;;;;;4.23;3.90;;;27.30;85.10;;;;;;4977392;28;20409;-69
2022/06/03 13:18:46;;;;;;;5.80;4.40;;;27.40;85.30;;;;;;4977243;28;20413;-69
2022/06/03 13:21:17;;;;;;;4.67;4.27;;;27.40;85.80;;;;;;4977247;28;20386;-70
2022/06/03 13:23:44;;;;;;;4.23;3.83;;;27.40;86.20;;;;;;4976755;28;20417;-70
2022/06/03 13:26:22;;;;;;;4.00;3.70;;;27.30;87.70;;;;;;4977106;28;20734;-69
2022/06/03 13:28:59;;;;;;;5.70;4.40;;;27.40;89.80;;;;;;4976785;28;20904;-69
2022/06/03 13:31:48;;;;;;;4.50;4.20;;;27.50;90.30;;;;;;4977078;28;20401;-70
2022/06/03 13:34:17;;;;;;;5.30;4.43;;;27.60;90.60;;;;;;4976375;28;20442;-70
2022/06/03 13:36:51;;;;;;;4.70;4.30;;;27.60;89.50;;;;;;4976679;28;20423;-70
2022/06/03 13:39:29;;;;;;;4.10;3.80;;;27.50;90.30;;;;;;4976996;28;20462;-68
2022/06/03 13:45:02;;;;;;;4.50;4.10;;;27.20;90.10;;;;;;4976781;28;20387;-68
2022/06/03 13:47:56;;;;;;;4.00;3.73;;;27.10;90.00;;;;;;4976799;28;20768;-69
2022/06/03 13:50:28;;;;;;;3.77;3.47;;;26.90;90.00;;;;;;4975368;28;20395;-69
2022/06/03 13:53:04;;;;;;;4.37;4.07;;;26.70;90.00;;;;;;4975963;28;20515;-68
2022/06/03 13:55:38;;;;;;;4.10;3.80;;;26.60;90.50;;;;;;4976330;28;20457;-70
2022/06/03 13:58:15;;;;;;;4.07;3.77;;;26.60;91.00;;;;;;4976699;28;20402;-69
2022/06/03 14:00:49;;;;;;;4.43;4.13;;;26.60;91.20;;;;;;4976664;28;20394;-70
2022/06/03 14:03:45;;;;;;;4.27;3.97;;;26.70;91.80;;;;;;4975577;28;20426;-70
2022/06/03 14:06:21;;;;;;;6.47;5.97;;;26.70;91.90;;;;;;4953550;28;20538;-70
2022/06/03 14:09:01;;;;;;;4.77;4.47;;;26.70;92.30;;;;;;4976553;28;20692;-70
2022/06/03 14:11:29;;;;;;;4.37;4.07;;;26.60;92.20;;;;;;4976105;28;20407;-70
2022/06/03 14:14:22;;;;;;;4.37;4.07;;;26.60;92.20;;;;;;4975673;28;20970;-71
2022/06/03 14:17:31;;;;;;;5.13;4.73;;;26.50;92.30;;;;;;4975158;28;20815;-69
2022/06/03 14:20:22;;;;;;;4.27;4.07;;;26.40;92.50;;;;;;4976092;28;20432;-70
2022/06/03 14:22:52;;;;;;;7.17;4.10;;;26.30;92.30;;;;;;4971757;28;20995;-71
2022/06/03 14:25:27;;;;;;;4.40;4.10;;;26.30;92.20;;;;;;4976399;28;20425;-69
2022/06/03 14:27:53;;;;;;;4.03;3.67;;;26.30;92.10;;;;;;4976098;28;20404;-69
2022/06/03 14:30:25;;;;;;;4.67;4.23;;;26.20;92.10;;;;;;4975640;28;20419;-69
2022/06/03 14:32:57;;;;;;;3.70;3.40;;;26.30;92.30;;;;;;4973669;28;20259;-68
2022/06/03 14:35:37;;;;;;;4.10;3.80;;;26.20;92.30;;;;;;4975927;28;20428;-71
2022/06/03 14:38:33;;;;;;;4.23;3.83;;;26.20;92.30;;;;;;4975016;28;20420;-70
2022/06/03 14:40:59;;;;;;;4.57;4.27;;;26.20;92.10;;;;;;4975686;28;20378;-69
2022/06/03 14:43:27;;;;;;;4.40;4.00;;;26.00;92.10;;;;;;4974916;28;20782;-69
2022/06/03 14:46:04;;;;;;;4.67;4.37;;;26.10;92.60;;;;;;4974814;28;20395;-69
2022/06/03 14:48:40;;;;;;;6.80;4.93;;;26.00;92.40;;;;;;4972595;28;20497;-69
2022/06/03 14:51:23;;;;;;;6.60;5.20;;;26.00;92.60;;;;;;4975221;28;20539;-68
2022/06/03 14:53:56;;;;;;;6.30;3.87;;;26.00;92.80;;;;;;4966053;28;20895;-67
2022/06/03 14:56:35;;;;;;;3.73;3.53;;;26.10;92.70;;;;;;4956172;29;20894;-71
2022/06/03 14:59:09;;;;;;;4.43;4.13;;;26.30;93.10;;;;;;4969164;28;20398;-71
2022/06/03 15:01:58;;;;;;;7.30;4.53;;;26.50;92.90;;;;;;4975208;28;20425;-70
2022/06/03 15:04:39;;;;;;;4.57;4.07;;;26.80;92.00;;;;;;4974755;28;20812;-70
2022/06/03 15:07:14;;;;;;;3.90;3.60;;;27.10;91.10;;;;;;4975057;28;20406;-70
2022/06/03 15:09:44;;;;;;;6.37;5.73;;;27.30;90.40;;;;;;4974795;28;20935;-69
2022/06/03 15:12:25;;;;;;;4.77;4.37;;;27.40;89.20;;;;;;4974624;28;20430;-68
2022/06/03 15:14:52;;;;;;;4.57;4.27;;;27.50;89.30;;;;;;4975023;28;20485;-67
2022/06/03 15:17:43;;;;;;;4.37;3.97;;;27.50;89.60;;;;;;4975118;28;20389;-67
2022/06/03 15:20:14;;;;;;;4.10;3.70;;;27.60;89.60;;;;;;4967974;28;20464;-65
2022/06/03 15:22:45;;;;;;;3.70;3.43;;;27.60;88.00;;;;;;4974606;28;20735;-67
2022/06/03 15:25:30;;;;;;;3.40;3.20;;;27.70;87.20;;;;;;4974999;28;20530;-67
2022/06/03 15:28:01;;;;;;;3.60;3.40;;;27.80;86.50;;;;;;4974571;28;20385;-69
2022/06/03 15:30:33;;;;;;;4.70;4.27;;;27.80;86.20;;;;;;4974842;28;20763;-67
2022/06/03 15:33:27;;;;;;;3.90;3.60;;;27.90;85.70;;;;;;4974353;28;20446;-68
2022/06/03 15:36:06;;;;;;;5.23;4.73;;;27.90;85.80;;;;;;4974781;28;20906;-67
2022/06/03 15:38:38;;;;;;;5.53;5.03;;;27.80;85.80;;;;;;4974298;28;20442;-67
2022/06/03 15:41:10;;;;;;;4.60;4.17;;;27.80;86.60;;;;;;4974681;28;20724;-68
2022/06/03 15:43:49;;;;;;;4.50;4.10;;;27.60;87.40;;;;;;4974306;28;20411;-67
2022/06/03 15:46:29;;;;;;;4.23;3.70;;;27.40;88.60;;;;;;4974498;28;20388;-66
2022/06/03 15:49:02;;;;;;;4.47;4.07;;;27.30;89.40;;;;;;4974175;28;20414;-66
2022/06/03 15:51:29;;;;;;;3.70;3.50;;;27.20;89.60;;;;;;4974373;28;20396;-66
2022/06/03 15:53:57;;;;;;;4.40;4.10;;;27.20;89.80;;;;;;4973889;28;20473;-67
2022/06/03 15:56:47;;;;;;;4.13;3.83;;;27.20;90.10;;;;;;4975037;28;20473;-67
2022/06/03 15:59:22;;;;;;;4.80;4.40;;;27.20;90.40;;;;;;4974005;28;20437;-66
2022/06/03 16:01:57;;;;;;;4.80;4.40;;;27.10;91.10;;;;;;4974490;28;20414;-67
2022/06/03 16:04:41;;;;;;;6.57;5.97;;;27.20;90.70;;;;;;4973905;28;20437;-67
2022/06/03 16:07:16;;;;;;;6.00;5.50;;;27.10;90.80;;;;;;4974304;28;20479;-66
2022/06/03 16:10:09;;;;;;;5.93;4.00;;;27.10;90.60;;;;;;4973240;28;20400;-67
2022/06/03 16:13:09;;;;;;;5.33;4.53;;;27.10;90.70;;;;;;4962386;28;20437;-67
2022/06/03 16:15:38;;;;;;;4.70;4.30;;;27.00;91.00;;;;;;4973994;28;20772;-67
2022/06/03 16:18:32;;;;;;;4.30;4.00;;;27.00;90.20;;;;;;4973842;28;20567;-68
2022/06/03 16:21:01;;;;;;;4.03;3.73;;;27.00;90.00;;;;;;4974122;28;20421;-67
2022/06/03 16:23:41;;;;;;;4.27;3.77;;;26.90;89.70;;;;;;4973633;28;20919;-65
2022/06/03 16:26:28;;;;;;;5.47;5.00;;;26.90;89.90;;;;;;4973665;28;20388;-66
2022/06/03 16:28:57;;;;;;;4.60;4.20;;;27.00;90.00;;;;;;4972939;28;20424;-68
2022/06/03 16:31:44;;;;;;;4.53;4.00;;;27.00;89.40;;;;;;4973932;28;20454;-68
2022/06/03 16:34:55;;;;;;;4.53;4.17;;;27.00;89.40;;;;;;4973217;28;20498;-67
2022/06/03 16:37:39;;;;;;;4.43;4.03;;;27.00;89.50;;;;;;4970781;28;20429;-68
2022/06/03 16:40:29;;;;;;;4.47;4.10;;;27.10;90.10;;;;;;4974214;28;20404;-67
2022/06/03 16:43:14;;;;;;;4.67;4.37;;;27.10;90.10;;;;;;4973427;28;20393;-67
2022/06/03 16:48:58;;;;;;;6.07;5.47;;;27.20;90.10;;;;;;4977321;28;20442;-67
2022/06/03 16:51:42;;;;;;;5.47;4.97;;;27.00;90.40;;;;;;4977236;28;20519;-67
2022/06/03 16:54:10;;;;;;;4.97;4.60;;;26.90;91.10;;;;;;4976883;28;20503;-67
2022/06/03 16:56:38;;;;;;;4.27;4.03;;;26.80;91.20;;;;;;4976293;28;20428;-67
2022/06/03 16:59:16;;;;;;;5.20;4.70;;;26.70;91.70;;;;;;4977573;28;20473;-67
2022/06/03 17:01:47;;;;;;;5.03;4.63;;;26.60;92.30;;;;;;4977116;28;20378;-66
2022/06/03 17:04:15;;;;;;;5.27;4.77;;;26.40;92.60;;;;;;4976719;28;20416;-67
2022/06/03 17:07:00;;;;;;;4.97;4.60;;;26.30;92.40;;;;;;4976827;28;20832;-66
2022/06/03 17:09:33;;;;;;;6.37;5.00;;;26.20;92.40;;;;;;4977037;28;20408;-68
2022/06/03 17:12:03;;;;;;;5.37;4.70;;;26.10;92.40;;;;;;4976676;28;20431;-66
2022/06/03 17:14:36;;;;;;;5.73;5.23;;;26.00;92.50;;;;;;4976427;28;20397;-67
2022/06/03 17:17:05;;;;;;;7.13;4.47;;;25.90;92.70;;;;;;4975751;28;20427;-67
2022/06/03 17:19:32;;;;;;;5.10;4.70;;;25.80;92.90;;;;;;4976307;28;20437;-66
2022/06/03 17:22:10;;;;;;;4.33;3.93;;;25.70;92.90;;;;;;4975697;28;20462;-68
2022/06/03 17:25:13;;;;;;;5.50;4.77;;;25.60;92.90;;;;;;4967099;28;20441;-66
2022/06/03 17:28:05;;;;;;;5.37;4.87;;;25.50;92.90;;;;;;4976860;28;20806;-67
2022/06/03 17:30:37;;;;;;;4.97;4.57;;;25.40;92.90;;;;;;4975779;28;20394;-70
2022/06/03 17:33:05;;;;;;;4.57;4.17;;;25.30;93.20;;;;;;4976231;28;20464;-71
2022/06/03 17:35:45;;;;;;;5.27;4.87;;;25.20;93.50;;;;;;4976617;28;20427;-70
2022/06/03 17:38:17;;;;;;;5.70;5.33;;;25.00;93.70;;;;;;4975100;28;20490;-69
2022/06/03 17:40:54;;;;;;;4.83;4.43;;;24.90;94.00;;;;;;4976186;28;20397;-71
2022/06/03 17:43:54;;;;;;;4.90;4.60;;;24.80;94.00;;;;;;4975743;28;20440;-72
2022/06/03 17:46:56;;;;;;;4.77;4.40;;;24.80;94.10;;;;;;4967826;28;20479;-70
2022/06/03 17:49:36;;;;;;;5.07;4.67;;;24.70;94.90;;;;;;4975875;28;20434;-69
2022/06/03 17:55:26;;;;;;;6.80;5.90;;;24.40;97.90;;;;;;4975883;28;20490;-70
2022/06/03 17:58:13;;;;;;;5.60;5.10;;;24.10;99.70;;;;;;4975332;28;20410;-70
2022/06/03 18:00:58;;;;;;;5.30;4.80;;;23.90;99.90;;;;;;4974782;28;20423;-71
2022/06/03 18:03:48;;;;;;;6.83;5.73;;;23.60;99.90;;;;;;4976295;28;20431;-70
2022/06/03 18:06:43;;;;;;;9.77;6.23;;;23.10;99.90;;;;;;4975096;28;20503;-69
2022/06/03 18:09:25;;;;;;;6.53;5.87;;;22.50;99.90;;;;;;4952549;28;20483;-67
2022/06/03 18:11:51;;;;;;;6.47;5.87;;;22.00;99.90;;;;;;4957126;29;20382;-69
2022/06/03 18:14:28;;;;;;;6.27;5.70;;;21.60;99.90;;;;;;4955275;28;20433;-68
2022/06/03 18:17:07;;;;;;;7.07;6.37;;;21.30;99.90;;;;;;4971577;28;20478;-69
2022/06/03 18:19:38;;;;;;;7.07;6.37;;;21.00;99.90;;;;;;4975769;28;20522;-69
2022/06/03 18:22:12;;;;;;;7.13;6.53;;;20.90;99.90;;;;;;4975627;28;20432;-70
2022/06/03 18:25:09;;;;;;;5.80;5.30;;;20.70;99.90;;;;;;4975804;28;20450;-68
2022/06/03 18:27:52;;;;;;;6.67;6.07;;;20.60;99.90;;;;;;4975132;28;20424;-72
2022/06/03 18:30:32;;;;;;;6.47;5.90;;;20.60;99.90;;;;;;4975741;28;20427;-69
2022/06/03 18:33:08;;;;;;;6.10;5.63;;;20.60;99.90;;;;;;4975210;28;20447;-69
2022/06/03 18:36:13;;;;;;;5.50;5.00;;;20.50;99.90;;;;;;4975434;28;20394;-72
2022/06/03 18:39:00;;;;;;;7.27;6.07;;;20.50;99.90;;;;;;4975797;28;20435;-67